Schedule Details


Flight Number: CTN462
Departure: Kastela (LDSP) at 12:05
Arrival: Zurich (LSZH) at 14:00
Route: ZDA N606 PUL P11 ROTAR L615 AKADO Y265 INBUT N503 VIC L12 MOGTI P66 KPT L856 NEGRA

Weather Information
LDSP 162300Z AUTO VRB04KT CAVOK 14/05 Q1017
LSZH 162320Z AUTO 12001KT 0650 0050N R14/0275U R16/0600N R28/0700D R34/1000D PRFG VCFG VV002 04/04 Q1021 TEMPO 0400 FG VV002
Schedule Frequency

Route Map